createdAt,value
2023-05-08T00:00:11.016Z,39.68
2023-05-08T00:01:10.988Z,39.71
2023-05-08T00:02:11.044Z,39.66
2023-05-08T00:03:11.178Z,39.64
2023-05-08T00:04:11.206Z,39.66
2023-05-08T00:05:11.177Z,39.69
2023-05-08T00:06:11.202Z,39.67
2023-05-08T00:07:11.304Z,39.68
2023-05-08T00:08:11.329Z,39.66
2023-05-08T00:09:11.388Z,39.64
2023-05-08T00:10:11.544Z,39.66
2023-05-08T00:11:11.492Z,39.68
2023-05-08T00:12:11.607Z,39.67
2023-05-08T00:13:11.633Z,39.68
2023-05-08T00:14:11.698Z,39.65
2023-05-08T00:15:11.715Z,39.68
2023-05-08T00:16:11.978Z,39.69
2023-05-08T00:17:11.810Z,39.63
2023-05-08T00:18:11.857Z,39.63
2023-05-08T00:19:11.890Z,39.64
2023-05-08T00:20:12.301Z,39.68
2023-05-08T00:21:12.003Z,39.60
2023-05-08T00:22:12.049Z,39.60
2023-05-08T00:23:12.083Z,39.57
2023-05-08T00:24:12.193Z,39.55
2023-05-08T00:25:12.210Z,39.52
2023-05-08T00:26:12.284Z,39.49
2023-05-08T00:27:12.317Z,39.54
2023-05-08T00:28:12.356Z,39.49
2023-05-08T00:29:12.416Z,39.51
2023-05-08T00:30:12.565Z,39.49
2023-05-08T00:31:12.528Z,39.48
2023-05-08T00:32:12.653Z,39.49
2023-05-08T00:33:12.672Z,39.45
2023-05-08T00:34:12.691Z,39.48
2023-05-08T00:35:12.755Z,39.46
2023-05-08T00:36:12.772Z,39.49
2023-05-08T00:37:12.817Z,39.46
2023-05-08T00:38:12.975Z,39.44
2023-05-08T00:39:12.917Z,39.42
2023-05-08T00:40:13.143Z,39.42
2023-05-08T00:41:13.023Z,39.40
2023-05-08T00:42:13.070Z,39.42
2023-05-08T00:43:13.120Z,39.42
2023-05-08T00:44:13.160Z,39.41
2023-05-08T00:45:13.192Z,39.36
2023-05-08T00:46:13.367Z,39.43
2023-05-08T00:47:13.310Z,39.45
2023-05-08T00:48:13.352Z,39.53
2023-05-08T00:49:13.389Z,39.57
2023-05-08T00:50:13.778Z,39.62
2023-05-08T00:51:13.450Z,39.68
2023-05-08T00:52:13.517Z,39.70
2023-05-08T00:53:13.564Z,39.78
2023-05-08T00:54:13.674Z,39.73
2023-05-08T00:55:13.671Z,39.74
2023-05-08T00:56:13.724Z,39.79
2023-05-08T00:57:13.713Z,39.76
2023-05-08T00:58:13.778Z,39.74
2023-05-08T00:59:13.808Z,39.74
2023-05-08T01:00:14.029Z,39.73
2023-05-08T01:01:14.538Z,39.73
2023-05-08T01:02:14.051Z,39.74
2023-05-08T01:03:14.086Z,39.78
2023-05-08T01:04:14.033Z,39.73
2023-05-08T01:05:14.118Z,39.73
2023-05-08T01:06:14.151Z,39.71
2023-05-08T01:07:14.166Z,39.73
2023-05-08T01:08:14.228Z,39.71
2023-05-08T01:09:14.277Z,39.66
2023-05-08T01:10:14.663Z,39.73
2023-05-08T01:11:14.417Z,39.73
2023-05-08T01:12:14.424Z,39.74
2023-05-08T01:13:14.601Z,39.71
2023-05-08T01:14:14.519Z,39.70
2023-05-08T01:15:14.566Z,39.68
2023-05-08T01:16:14.649Z,39.65
2023-05-08T01:17:14.609Z,39.66
2023-05-08T01:18:15.588Z,39.60
2023-05-08T01:19:14.722Z,39.55
2023-05-08T01:20:14.933Z,39.56
2023-05-08T01:21:14.778Z,39.56
2023-05-08T01:22:14.800Z,39.52
2023-05-08T01:23:14.844Z,39.58
2023-05-08T01:24:15.554Z,39.52
2023-05-08T01:25:14.952Z,39.52
2023-05-08T01:26:14.994Z,39.48
2023-05-08T01:27:15.516Z,39.48
2023-05-08T01:28:15.077Z,39.45
2023-05-08T01:29:15.117Z,39.43
2023-05-08T01:30:15.153Z,39.42
2023-05-08T01:31:15.182Z,39.35
2023-05-08T01:32:15.203Z,39.31
2023-05-08T01:33:15.377Z,39.29
2023-05-08T01:34:16.047Z,39.34
2023-05-08T01:35:15.314Z,39.35
2023-05-08T01:36:15.374Z,39.32
2023-05-08T01:37:15.407Z,39.40
2023-05-08T01:38:15.485Z,39.36
2023-05-08T01:39:16.005Z,39.35
2023-05-08T01:40:16.290Z,39.36
2023-05-08T01:41:15.674Z,39.40
2023-05-08T01:42:15.654Z,39.42
2023-05-08T01:43:15.668Z,39.46
2023-05-08T01:44:15.742Z,39.56
2023-05-08T01:45:15.745Z,39.57
2023-05-08T01:46:15.837Z,39.62
2023-05-08T01:47:15.836Z,39.64
2023-05-08T01:48:15.871Z,39.67
2023-05-08T01:49:15.905Z,39.66
2023-05-08T01:50:16.132Z,39.69
2023-05-08T01:51:15.982Z,39.76
2023-05-08T01:52:16.045Z,39.73
2023-05-08T01:53:16.067Z,39.78
2023-05-08T01:54:16.150Z,39.79
2023-05-08T01:55:16.187Z,39.81
2023-05-08T01:56:16.179Z,39.76
2023-05-08T01:57:16.234Z,39.78
2023-05-08T01:58:16.268Z,39.74
2023-05-08T01:59:16.321Z,39.77
2023-05-08T02:00:16.388Z,39.77
2023-05-08T02:01:16.510Z,39.76
2023-05-08T02:02:16.456Z,39.78
2023-05-08T02:03:16.530Z,39.76
2023-05-08T02:04:16.604Z,39.74
2023-05-08T02:05:16.542Z,39.76
2023-05-08T02:06:16.638Z,39.75
2023-05-08T02:07:16.612Z,39.78
2023-05-08T02:08:16.664Z,39.78
2023-05-08T02:09:16.716Z,39.83
2023-05-08T02:10:16.784Z,39.85
2023-05-08T02:11:16.840Z,39.83
2023-05-08T02:12:16.835Z,39.82
2023-05-08T02:13:17.629Z,39.83
2023-05-08T02:14:16.920Z,39.81
2023-05-08T02:15:16.944Z,39.79
2023-05-08T02:16:17.043Z,39.78
2023-05-08T02:17:17.023Z,39.79
2023-05-08T02:18:17.065Z,39.85
2023-05-08T02:19:18.054Z,39.82
2023-05-08T02:20:17.183Z,39.80
2023-05-08T02:21:17.180Z,39.85
2023-05-08T02:22:17.232Z,39.85
2023-05-08T02:23:17.294Z,39.92
2023-05-08T02:24:17.323Z,39.88
2023-05-08T02:25:17.377Z,39.87
2023-05-08T02:26:17.428Z,39.88
2023-05-08T02:27:17.452Z,39.78
2023-05-08T02:28:17.460Z,39.82
2023-05-08T02:29:17.509Z,39.82
2023-05-08T02:30:17.567Z,39.72
2023-05-08T02:31:17.611Z,39.76
2023-05-08T02:32:17.745Z,39.73
2023-05-08T02:33:17.733Z,39.71
2023-05-08T02:34:17.713Z,39.69
2023-05-08T02:35:17.826Z,39.69
2023-05-08T02:36:17.802Z,39.70
2023-05-08T02:37:17.848Z,39.74
2023-05-08T02:38:17.925Z,39.71
2023-05-08T02:39:17.939Z,39.71
2023-05-08T02:40:17.981Z,39.76
2023-05-08T02:41:18.054Z,39.74
2023-05-08T02:42:18.101Z,39.74
2023-05-08T02:43:18.162Z,39.75
2023-05-08T02:44:18.217Z,39.76
2023-05-08T02:45:18.286Z,39.78
2023-05-08T02:46:18.317Z,39.78
2023-05-08T02:47:18.348Z,39.79
2023-05-08T02:48:18.375Z,39.78
2023-05-08T02:49:18.453Z,39.76
2023-05-08T02:50:18.520Z,39.81
2023-05-08T02:51:18.515Z,39.78
2023-05-08T02:52:18.634Z,39.83
2023-05-08T02:53:18.594Z,39.79
2023-05-08T02:54:18.641Z,39.79
2023-05-08T02:55:18.770Z,39.79
2023-05-08T02:56:18.771Z,39.81
2023-05-08T02:57:18.797Z,39.83
2023-05-08T02:58:18.861Z,39.84
2023-05-08T02:59:18.881Z,39.80
2023-05-08T03:00:18.914Z,39.85
2023-05-08T03:01:18.979Z,39.83
2023-05-08T03:02:19.010Z,39.85
2023-05-08T03:03:19.252Z,39.86
2023-05-08T03:04:19.110Z,39.89
2023-05-08T03:05:19.187Z,39.88
2023-05-08T03:06:19.213Z,39.86
2023-05-08T03:07:19.272Z,39.95
2023-05-08T03:08:19.346Z,39.88
2023-05-08T03:09:19.339Z,39.93
2023-05-08T03:10:19.402Z,39.93
2023-05-08T03:11:19.475Z,39.88
2023-05-08T03:12:19.461Z,39.95
2023-05-08T03:13:19.537Z,39.94
2023-05-08T03:14:19.584Z,39.96
2023-05-08T03:15:19.605Z,39.95
2023-05-08T03:16:19.727Z,39.96
2023-05-08T03:17:19.782Z,39.95
2023-05-08T03:18:19.781Z,39.99
2023-05-08T03:19:21.365Z,39.95
2023-05-08T03:20:19.818Z,39.96
2023-05-08T03:21:19.789Z,39.94
2023-05-08T03:22:19.805Z,39.93
2023-05-08T03:23:19.809Z,39.94
2023-05-08T03:24:19.788Z,39.96
2023-05-08T03:25:19.783Z,39.90
2023-05-08T03:26:19.740Z,39.94
2023-05-08T03:27:19.749Z,39.88
2023-05-08T03:28:19.791Z,39.88
2023-05-08T03:29:19.730Z,39.84
2023-05-08T03:30:19.712Z,39.84
2023-05-08T03:31:19.763Z,39.87
2023-05-08T03:32:19.709Z,39.83
2023-05-08T03:33:19.713Z,39.84
2023-05-08T03:34:19.699Z,39.84
2023-05-08T03:35:19.758Z,39.87
2023-05-08T03:36:19.753Z,39.87
2023-05-08T03:37:19.682Z,39.84
2023-05-08T03:38:19.664Z,39.88
2023-05-08T03:39:20.568Z,39.85
2023-05-08T03:40:19.715Z,39.82
2023-05-08T03:41:19.673Z,39.84
2023-05-08T03:42:19.661Z,39.86
2023-05-08T03:43:19.676Z,39.80
2023-05-08T03:44:19.621Z,39.90
2023-05-08T03:45:19.646Z,39.85
2023-05-08T03:46:19.698Z,39.88
2023-05-08T03:47:19.607Z,39.86
2023-05-08T03:48:19.663Z,39.85
2023-05-08T03:49:19.687Z,39.88
2023-05-08T03:50:19.693Z,39.81
2023-05-08T03:51:19.571Z,39.83
2023-05-08T03:52:19.559Z,39.86
2023-05-08T03:53:19.597Z,39.86
2023-05-08T03:54:19.564Z,39.88
2023-05-08T03:55:19.571Z,39.82
2023-05-08T03:56:19.666Z,39.88
2023-05-08T03:57:19.553Z,39.85
2023-05-08T03:58:19.550Z,39.86
2023-05-08T03:59:19.564Z,39.80
2023-05-08T04:00:19.690Z,39.81
2023-05-08T04:01:19.649Z,39.81
2023-05-08T04:02:19.774Z,39.81
2023-05-08T04:03:19.764Z,39.85
2023-05-08T04:04:19.886Z,39.84
2023-05-08T04:05:19.815Z,39.80
2023-05-08T04:06:19.873Z,39.82
2023-05-08T04:07:19.903Z,39.82
2023-05-08T04:08:19.926Z,39.79
2023-05-08T04:09:20.008Z,39.82
2023-05-08T04:10:20.059Z,39.77
2023-05-08T04:11:20.109Z,39.81
2023-05-08T04:12:20.171Z,39.84
2023-05-08T04:13:20.295Z,39.79
2023-05-08T04:14:20.219Z,39.79
2023-05-08T04:15:20.272Z,39.80
2023-05-08T04:16:20.368Z,39.81
2023-05-08T04:17:20.370Z,39.77
2023-05-08T04:18:20.420Z,39.74
2023-05-08T04:19:20.857Z,39.75
2023-05-08T04:20:20.514Z,39.71
2023-05-08T04:21:20.512Z,39.71
2023-05-08T04:22:20.579Z,39.70
2023-05-08T04:23:20.642Z,39.73
2023-05-08T04:24:20.683Z,39.72
2023-05-08T04:25:21.114Z,39.70
2023-05-08T04:26:20.842Z,39.70
2023-05-08T04:27:20.842Z,39.69
2023-05-08T04:28:20.940Z,39.70
2023-05-08T04:29:20.935Z,39.72
2023-05-08T04:30:21.011Z,39.72
2023-05-08T04:31:21.060Z,39.76
2023-05-08T04:32:21.099Z,39.70
2023-05-08T04:33:21.200Z,39.70
2023-05-08T04:34:21.221Z,39.70
2023-05-08T04:35:21.306Z,39.69
2023-05-08T04:36:21.316Z,39.69
2023-05-08T04:37:21.351Z,39.66
2023-05-08T04:38:22.122Z,39.67
2023-05-08T04:39:21.466Z,39.69
2023-05-08T04:40:21.505Z,39.63
2023-05-08T04:41:21.664Z,39.66
2023-05-08T04:42:21.636Z,39.63
2023-05-08T04:43:21.644Z,39.65
2023-05-08T04:44:21.703Z,39.61
2023-05-08T04:45:21.800Z,39.62
2023-05-08T04:46:21.918Z,39.62
2023-05-08T04:47:21.950Z,39.63
2023-05-08T04:48:21.913Z,39.61
2023-05-08T04:49:21.984Z,39.62
2023-05-08T04:50:22.042Z,39.65
2023-05-08T04:51:22.091Z,39.65
2023-05-08T04:52:23.107Z,39.69
2023-05-08T04:53:22.222Z,39.72
2023-05-08T04:54:22.270Z,39.71
2023-05-08T04:55:22.290Z,39.78
2023-05-08T04:56:22.348Z,39.74
2023-05-08T04:57:22.409Z,39.74
2023-05-08T04:58:22.494Z,39.72
2023-05-08T04:59:22.497Z,39.73
2023-05-08T05:00:22.550Z,39.72
2023-05-08T05:01:23.733Z,39.72
2023-05-08T05:02:22.660Z,39.70
2023-05-08T05:03:22.786Z,39.71
2023-05-08T05:04:22.785Z,39.65
2023-05-08T05:05:22.819Z,39.65
2023-05-08T05:06:22.895Z,39.63
2023-05-08T05:07:22.927Z,39.65
2023-05-08T05:08:23.024Z,39.64
2023-05-08T05:09:23.041Z,39.67
2023-05-08T05:10:23.075Z,39.63
2023-05-08T05:11:23.118Z,39.64
2023-05-08T05:12:23.184Z,39.65
2023-05-08T05:13:23.314Z,39.67
2023-05-08T05:14:23.307Z,39.73
2023-05-08T05:15:23.321Z,39.72
2023-05-08T05:16:23.472Z,39.70
2023-05-08T05:17:23.506Z,39.72
2023-05-08T05:18:23.490Z,39.75
2023-05-08T05:19:23.546Z,39.74
2023-05-08T05:20:23.605Z,39.78
2023-05-08T05:21:23.659Z,39.77
2023-05-08T05:22:23.715Z,39.79
2023-05-08T05:23:23.757Z,39.79
2023-05-08T05:24:23.795Z,39.79
2023-05-08T05:25:23.839Z,39.78
2023-05-08T05:26:23.907Z,39.79
2023-05-08T05:27:23.973Z,39.83
2023-05-08T05:28:24.012Z,39.78
2023-05-08T05:29:24.067Z,39.77
2023-05-08T05:30:24.132Z,39.77
2023-05-08T05:31:24.191Z,39.78
2023-05-08T05:32:24.253Z,39.75
2023-05-08T05:33:24.268Z,39.68
2023-05-08T05:34:24.315Z,39.75
2023-05-08T05:35:25.571Z,39.69
2023-05-08T05:36:24.434Z,39.67
2023-05-08T05:37:24.480Z,39.82
2023-05-08T05:38:24.535Z,39.88
2023-05-08T05:39:24.573Z,40.07
2023-05-08T05:40:24.636Z,39.96
2023-05-08T05:41:24.659Z,40.36
2023-05-08T05:42:24.692Z,40.44
2023-05-08T05:43:24.748Z,40.41
2023-05-08T05:44:24.728Z,40.41
2023-05-08T05:45:24.793Z,40.71
2023-05-08T05:46:24.849Z,40.68
2023-05-08T05:47:24.893Z,40.50
2023-05-08T05:48:24.904Z,41.47
2023-05-08T05:49:24.891Z,42.66
2023-05-08T05:50:25.183Z,43.12
2023-05-08T05:51:25.019Z,43.48
2023-05-08T05:52:25.062Z,44.53
2023-05-08T05:53:25.194Z,44.31
2023-05-08T05:54:25.218Z,43.47
2023-05-08T05:55:25.651Z,44.84
2023-05-08T05:56:25.381Z,45.12
2023-05-08T05:57:25.300Z,44.63
2023-05-08T05:58:25.349Z,44.10
2023-05-08T05:59:25.416Z,44.61
2023-05-08T06:00:25.413Z,44.93
2023-05-08T06:01:25.428Z,44.67
2023-05-08T06:02:25.561Z,44.84
2023-05-08T06:03:25.528Z,44.65
2023-05-08T06:04:25.480Z,45.10
2023-05-08T06:05:25.551Z,44.33
2023-05-08T06:06:25.577Z,44.29
2023-05-08T06:07:25.633Z,44.05
2023-05-08T06:08:25.709Z,44.00
2023-05-08T06:09:25.719Z,43.98
2023-05-08T06:10:26.118Z,43.89
2023-05-08T06:11:25.761Z,43.95
2023-05-08T06:12:25.752Z,43.95
2023-05-08T06:13:25.901Z,44.27
2023-05-08T06:14:25.770Z,44.18
2023-05-08T06:15:26.112Z,43.99
2023-05-08T06:16:25.812Z,44.17
2023-05-08T06:17:25.881Z,44.02
2023-05-08T06:18:25.900Z,44.25
2023-05-08T06:19:25.977Z,44.56
2023-05-08T06:20:26.487Z,44.39
2023-05-08T06:21:25.965Z,44.18
2023-05-08T06:22:26.036Z,44.13
2023-05-08T06:23:26.120Z,44.15
2023-05-08T06:24:26.101Z,44.28
2023-05-08T06:25:26.173Z,44.65
2023-05-08T06:26:26.180Z,44.44
2023-05-08T06:27:26.250Z,44.37
2023-05-08T06:28:26.303Z,44.39
2023-05-08T06:29:26.327Z,44.36
2023-05-08T06:30:26.400Z,44.33
2023-05-08T06:31:26.519Z,44.52
2023-05-08T06:32:26.544Z,44.64
2023-05-08T06:33:27.078Z,44.82
2023-05-08T06:34:26.585Z,44.69
2023-05-08T06:35:26.675Z,44.59
2023-05-08T06:36:26.726Z,44.52
2023-05-08T06:37:26.765Z,44.78
2023-05-08T06:38:26.836Z,44.63
2023-05-08T06:39:26.866Z,44.93
2023-05-08T06:40:26.974Z,44.63
2023-05-08T06:41:26.975Z,44.82
2023-05-08T06:42:26.977Z,44.52
2023-05-08T06:43:27.031Z,44.71
2023-05-08T06:44:27.055Z,44.79
2023-05-08T06:45:27.090Z,44.94
2023-05-08T06:46:27.186Z,44.68
2023-05-08T06:47:27.174Z,44.64
2023-05-08T06:48:27.214Z,44.64
2023-05-08T06:49:27.168Z,42.83
2023-05-08T06:50:27.669Z,42.12
2023-05-08T06:51:27.274Z,42.21
2023-05-08T06:52:27.282Z,42.32
2023-05-08T06:53:27.296Z,42.67
2023-05-08T06:54:27.318Z,42.68
2023-05-08T06:55:27.341Z,42.69
2023-05-08T06:56:27.329Z,42.96
2023-05-08T06:57:27.372Z,43.26
2023-05-08T06:58:27.412Z,43.71
2023-05-08T06:59:27.445Z,43.57
2023-05-08T07:00:27.507Z,43.59
2023-05-08T07:01:27.618Z,43.60
2023-05-08T07:02:27.646Z,43.63
2023-05-08T07:03:27.669Z,44.11
2023-05-08T07:04:28.422Z,43.78
2023-05-08T07:05:27.707Z,44.01
2023-05-08T07:06:27.735Z,44.06
2023-05-08T07:07:27.773Z,44.59
2023-05-08T07:08:27.863Z,44.12
2023-05-08T07:09:27.864Z,43.99
2023-05-08T07:10:27.888Z,43.97
2023-05-08T07:11:27.910Z,43.84
2023-05-08T07:12:27.951Z,43.94
2023-05-08T07:13:27.982Z,43.89
2023-05-08T07:14:27.991Z,44.18
2023-05-08T07:15:28.269Z,43.98
2023-05-08T07:16:28.106Z,44.12
2023-05-08T07:17:28.074Z,44.03
2023-05-08T07:18:28.091Z,43.97
2023-05-08T07:19:28.091Z,43.95
2023-05-08T07:20:28.147Z,43.99
2023-05-08T07:21:28.167Z,43.89
2023-05-08T07:22:28.208Z,44.25
2023-05-08T07:23:28.274Z,44.35
2023-05-08T07:24:28.158Z,45.06
2023-05-08T07:25:28.192Z,44.71
2023-05-08T07:26:28.193Z,44.54
2023-05-08T07:27:28.216Z,44.33
2023-05-08T07:28:28.232Z,44.25
2023-05-08T07:29:28.254Z,44.36
2023-05-08T07:30:28.338Z,44.18
2023-05-08T07:31:28.407Z,44.18
2023-05-08T07:32:28.391Z,44.24
2023-05-08T07:33:28.395Z,44.20
2023-05-08T07:34:28.449Z,44.18
2023-05-08T07:35:28.506Z,44.08
2023-05-08T07:36:28.543Z,44.06
2023-05-08T07:37:28.617Z,44.05
2023-05-08T07:38:28.648Z,44.10
2023-05-08T07:39:28.714Z,44.54
2023-05-08T07:40:29.192Z,44.31
2023-05-08T07:41:28.864Z,43.97
2023-05-08T07:42:28.854Z,43.42
2023-05-08T07:43:28.872Z,43.21
2023-05-08T07:44:28.900Z,43.04
2023-05-08T07:45:29.155Z,43.01
2023-05-08T07:46:28.888Z,43.13
2023-05-08T07:47:28.955Z,43.01
2023-05-08T07:48:28.956Z,42.37
2023-05-08T07:49:28.972Z,41.48
2023-05-08T07:50:28.993Z,41.00
2023-05-08T07:51:29.038Z,41.04
2023-05-08T07:52:29.653Z,41.26
2023-05-08T07:53:29.124Z,40.90
2023-05-08T07:54:29.123Z,40.93
2023-05-08T07:55:29.133Z,41.02
2023-05-08T07:56:29.178Z,41.30
2023-05-08T07:57:29.137Z,41.48
2023-05-08T07:58:29.186Z,41.70
2023-05-08T07:59:29.157Z,42.06
2023-05-08T08:00:29.246Z,42.30
2023-05-08T08:01:29.257Z,42.55
2023-05-08T08:02:29.393Z,42.65
2023-05-08T08:03:29.477Z,42.76
2023-05-08T08:04:29.576Z,42.76
2023-05-08T08:05:29.804Z,42.73
2023-05-08T08:06:29.506Z,42.64
2023-05-08T08:07:29.529Z,42.72
2023-05-08T08:08:29.569Z,42.83
2023-05-08T08:09:29.636Z,42.67
2023-05-08T08:10:29.698Z,42.78
2023-05-08T08:11:29.680Z,42.91
2023-05-08T08:12:29.819Z,42.92
2023-05-08T08:13:29.839Z,42.95
2023-05-08T08:14:29.815Z,42.94
2023-05-08T08:15:29.871Z,42.83
2023-05-08T08:16:29.946Z,42.85
2023-05-08T08:17:30.008Z,42.88
2023-05-08T08:18:29.946Z,42.95
2023-05-08T08:19:30.050Z,42.95
2023-05-08T08:20:30.045Z,42.93
2023-05-08T08:21:30.110Z,42.93
2023-05-08T08:22:30.111Z,42.90
2023-05-08T08:23:30.158Z,42.90
2023-05-08T08:24:30.211Z,42.93
2023-05-08T08:25:30.237Z,42.87
2023-05-08T08:26:30.276Z,42.95
2023-05-08T08:27:30.319Z,42.93
2023-05-08T08:28:30.444Z,42.95
2023-05-08T08:29:30.423Z,42.92
2023-05-08T08:30:30.478Z,42.98
2023-05-08T08:31:30.441Z,43.04
2023-05-08T08:32:30.462Z,43.01
2023-05-08T08:33:30.588Z,43.02
2023-05-08T08:34:30.536Z,42.97
2023-05-08T08:35:30.591Z,42.56
2023-05-08T08:36:30.977Z,42.79
2023-05-08T08:37:30.640Z,42.52
2023-05-08T08:38:30.709Z,42.41
2023-05-08T08:39:30.736Z,41.57
2023-05-08T08:40:30.766Z,42.14
2023-05-08T08:41:30.777Z,42.32
2023-05-08T08:42:30.783Z,42.00
2023-05-08T08:43:30.822Z,42.32
2023-05-08T08:44:30.923Z,42.53
2023-05-08T08:45:31.196Z,42.73
2023-05-08T08:46:30.944Z,43.92
2023-05-08T08:47:30.941Z,43.92
2023-05-08T08:48:30.924Z,43.76
2023-05-08T08:49:30.948Z,43.96
2023-05-08T08:50:31.190Z,43.67
2023-05-08T08:51:31.070Z,43.95
2023-05-08T08:52:31.046Z,43.88
2023-05-08T08:53:31.148Z,43.73
2023-05-08T08:54:31.167Z,43.53
2023-05-08T08:55:31.268Z,43.52
2023-05-08T08:56:31.265Z,43.14
2023-05-08T08:57:31.337Z,43.23
2023-05-08T08:58:31.358Z,43.01
2023-05-08T08:59:31.428Z,42.55
2023-05-08T09:00:31.580Z,42.21
2023-05-08T09:01:31.622Z,42.07
2023-05-08T09:02:31.646Z,42.00
2023-05-08T09:03:31.755Z,41.88
2023-05-08T09:04:31.707Z,41.59
2023-05-08T09:05:32.184Z,41.26
2023-05-08T09:06:31.741Z,41.28
2023-05-08T09:07:31.751Z,41.30
2023-05-08T09:08:31.807Z,41.28
2023-05-08T09:09:31.824Z,41.23
2023-05-08T09:10:32.234Z,41.13
2023-05-08T09:11:31.846Z,41.17
2023-05-08T09:12:31.906Z,41.18
2023-05-08T09:13:32.016Z,41.18
2023-05-08T09:14:31.964Z,41.16
2023-05-08T09:15:32.005Z,41.17
2023-05-08T09:16:32.158Z,41.11
2023-05-08T09:17:32.107Z,40.99
2023-05-08T09:18:32.073Z,40.93
2023-05-08T09:19:32.136Z,40.92
2023-05-08T09:20:32.170Z,40.99
2023-05-08T09:21:32.184Z,40.99
2023-05-08T09:22:32.191Z,41.03
2023-05-08T09:23:32.261Z,41.04
2023-05-08T09:24:32.302Z,41.17
2023-05-08T09:25:32.350Z,41.29
2023-05-08T09:26:32.353Z,41.35
2023-05-08T09:27:32.370Z,41.51
2023-05-08T09:28:32.391Z,41.49
2023-05-08T09:29:32.431Z,41.41
2023-05-08T09:30:32.448Z,41.23
2023-05-08T09:31:32.814Z,41.51
2023-05-08T09:32:32.721Z,41.45
2023-05-08T09:33:32.509Z,41.45
2023-05-08T09:34:32.528Z,41.30
2023-05-08T09:35:32.551Z,41.47
2023-05-08T09:36:32.516Z,41.28
2023-05-08T09:37:32.528Z,41.32
2023-05-08T09:38:32.565Z,41.33
2023-05-08T09:39:32.608Z,41.39
2023-05-08T09:40:32.724Z,41.47
2023-05-08T09:41:32.633Z,41.53
2023-05-08T09:42:32.636Z,41.88
2023-05-08T09:43:32.709Z,41.79
2023-05-08T09:44:32.751Z,42.70
2023-05-08T09:45:33.323Z,45.31
2023-05-08T09:46:32.804Z,42.99
2023-05-08T09:47:32.861Z,42.50
2023-05-08T09:48:32.999Z,42.43
2023-05-08T09:49:32.925Z,42.45
2023-05-08T09:50:32.963Z,42.42
2023-05-08T09:51:32.966Z,42.31
2023-05-08T09:52:32.985Z,42.47
2023-05-08T09:53:33.007Z,42.34
2023-05-08T09:54:33.031Z,42.36
2023-05-08T09:55:33.073Z,42.32
2023-05-08T09:56:33.106Z,41.24
2023-05-08T09:57:33.130Z,40.71
2023-05-08T09:58:33.158Z,40.43
2023-05-08T09:59:34.185Z,40.42
2023-05-08T10:00:33.253Z,40.51
2023-05-08T10:01:33.332Z,40.30
2023-05-08T10:02:33.299Z,40.28
2023-05-08T10:03:33.334Z,40.28
2023-05-08T10:04:33.424Z,40.03
2023-05-08T10:05:33.449Z,39.97
2023-05-08T10:06:33.348Z,39.99
2023-05-08T10:07:33.362Z,39.84
2023-05-08T10:08:33.401Z,39.77
2023-05-08T10:09:47.115Z,39.94
2023-05-08T10:10:34.446Z,40.23
2023-05-08T10:11:33.840Z,40.61
2023-05-08T10:12:33.422Z,40.84
2023-05-08T10:13:33.397Z,41.19
2023-05-08T10:14:33.459Z,41.35
2023-05-08T10:15:33.413Z,41.65
2023-05-08T10:16:33.426Z,42.18
2023-05-08T10:17:33.404Z,41.95
2023-05-08T10:18:33.359Z,41.99
2023-05-08T10:19:33.402Z,42.00
2023-05-08T10:20:33.485Z,42.00
2023-05-08T10:21:33.411Z,42.23
2023-05-08T10:22:33.410Z,42.19
2023-05-08T10:23:33.330Z,42.31
2023-05-08T10:24:33.385Z,42.45
2023-05-08T10:25:33.408Z,42.57
2023-05-08T10:26:33.421Z,42.67
2023-05-08T10:27:33.480Z,42.70
2023-05-08T10:28:33.526Z,42.83
2023-05-08T10:29:33.582Z,42.86
2023-05-08T10:30:33.628Z,42.91
2023-05-08T10:31:33.746Z,42.94
2023-05-08T10:32:33.767Z,43.05
2023-05-08T10:33:33.843Z,43.14
2023-05-08T10:34:33.849Z,43.13
2023-05-08T10:35:33.887Z,43.03
2023-05-08T10:36:34.310Z,43.38
2023-05-08T10:37:34.044Z,43.35
2023-05-08T10:38:34.094Z,43.33
2023-05-08T10:39:34.120Z,43.75
2023-05-08T10:40:34.083Z,43.25
2023-05-08T10:41:34.147Z,43.00
2023-05-08T10:42:34.167Z,43.18
2023-05-08T10:43:34.173Z,43.42
2023-05-08T10:44:34.207Z,43.52
2023-05-08T10:45:34.250Z,43.32
2023-05-08T10:46:34.769Z,43.27
2023-05-08T10:47:34.284Z,43.36
2023-05-08T10:48:34.298Z,43.48
2023-05-08T10:49:34.327Z,43.64
2023-05-08T10:50:34.349Z,43.85
2023-05-08T10:51:34.364Z,43.94
2023-05-08T10:52:34.364Z,44.09
2023-05-08T10:53:34.413Z,44.16
2023-05-08T10:54:34.393Z,44.36
2023-05-08T10:55:34.393Z,44.39
2023-05-08T10:56:34.422Z,44.52
2023-05-08T10:57:34.424Z,44.61
2023-05-08T10:58:34.407Z,44.80
2023-05-08T10:59:34.450Z,44.83
2023-05-08T11:00:34.434Z,44.92
2023-05-08T11:01:34.531Z,45.00
2023-05-08T11:02:34.537Z,45.14
2023-05-08T11:03:34.561Z,45.38
2023-05-08T11:04:34.602Z,45.49
2023-05-08T11:05:34.542Z,45.70
2023-05-08T11:06:34.587Z,45.77
2023-05-08T11:07:34.571Z,45.55
2023-05-08T11:08:34.695Z,45.58
2023-05-08T11:09:34.605Z,45.55
2023-05-08T11:10:34.704Z,45.63
2023-05-08T11:11:34.685Z,45.79
2023-05-08T11:12:34.704Z,45.78
2023-05-08T11:13:34.822Z,45.84
2023-05-08T11:14:34.746Z,45.64
2023-05-08T11:15:34.789Z,45.61
2023-05-08T11:16:34.965Z,45.64
2023-05-08T11:17:34.924Z,45.82
2023-05-08T11:18:48.555Z,45.74
2023-05-08T11:19:35.971Z,45.63
2023-05-08T11:20:34.924Z,45.63
2023-05-08T11:21:34.905Z,45.61
2023-05-08T11:22:34.927Z,45.71
2023-05-08T11:23:34.885Z,45.70
2023-05-08T11:24:34.907Z,45.86
2023-05-08T11:25:34.902Z,45.87
2023-05-08T11:26:34.900Z,45.99
2023-05-08T11:27:34.873Z,46.14
2023-05-08T11:28:34.881Z,46.28
2023-05-08T11:29:34.919Z,46.35
2023-05-08T11:30:35.145Z,46.40
2023-05-08T11:31:35.325Z,46.27
2023-05-08T11:32:35.404Z,46.18
2023-05-08T11:33:35.146Z,45.98
2023-05-08T11:34:35.142Z,46.09
2023-05-08T11:35:35.210Z,45.80
2023-05-08T11:36:35.274Z,45.72
2023-05-08T11:37:35.250Z,45.60
2023-05-08T11:38:35.231Z,45.57
2023-05-08T11:39:35.282Z,45.50
2023-05-08T11:40:35.276Z,45.44
2023-05-08T11:41:35.282Z,45.32
2023-05-08T11:42:35.303Z,45.27
2023-05-08T11:43:35.325Z,45.15
2023-05-08T11:44:35.339Z,45.04
2023-05-08T11:45:35.353Z,44.99
2023-05-08T11:46:35.458Z,44.91
2023-05-08T11:47:35.422Z,44.83
2023-05-08T11:48:35.447Z,44.72
2023-05-08T11:49:35.499Z,44.70
2023-05-08T11:50:35.499Z,44.64
2023-05-08T11:51:35.566Z,44.60
2023-05-08T11:52:35.553Z,44.52
2023-05-08T11:53:35.615Z,44.40
2023-05-08T11:54:35.685Z,44.30
2023-05-08T11:55:35.705Z,44.14
2023-05-08T11:56:35.797Z,44.09
2023-05-08T11:57:35.826Z,43.94
2023-05-08T11:58:35.826Z,43.77
2023-05-08T11:59:35.953Z,43.81
2023-05-08T12:00:35.937Z,43.68
2023-05-08T12:01:36.032Z,43.62
2023-05-08T12:02:36.124Z,43.37
2023-05-08T12:03:36.175Z,43.26
2023-05-08T12:04:36.816Z,43.22
2023-05-08T12:05:36.213Z,43.22
2023-05-08T12:06:36.277Z,43.13
2023-05-08T12:07:36.313Z,42.98
2023-05-08T12:08:36.380Z,42.92
2023-05-08T12:09:36.442Z,42.85
2023-05-08T12:10:36.457Z,42.85
2023-05-08T12:11:36.540Z,42.75
2023-05-08T12:12:36.566Z,42.68
2023-05-08T12:13:36.673Z,42.63
2023-05-08T12:14:36.695Z,42.45
2023-05-08T12:15:36.733Z,42.48
2023-05-08T12:16:37.338Z,42.39
2023-05-08T12:17:36.919Z,42.34
2023-05-08T12:18:37.964Z,42.36
2023-05-08T12:19:37.000Z,42.47
2023-05-08T12:20:37.039Z,42.43
2023-05-08T12:21:37.130Z,42.43
2023-05-08T12:22:37.127Z,42.48
2023-05-08T12:23:37.186Z,42.48
2023-05-08T12:24:37.246Z,42.48
2023-05-08T12:25:37.297Z,42.47
2023-05-08T12:26:37.352Z,42.48
2023-05-08T12:27:37.476Z,42.47
2023-05-08T12:28:37.457Z,42.40
2023-05-08T12:29:37.491Z,42.35
2023-05-08T12:30:37.612Z,42.35
2023-05-08T12:31:37.742Z,42.32
2023-05-08T12:32:37.689Z,42.26
2023-05-08T12:33:37.704Z,42.22
2023-05-08T12:34:37.777Z,42.21
2023-05-08T12:35:37.814Z,42.19
2023-05-08T12:36:37.837Z,42.16
2023-05-08T12:37:37.962Z,42.14
2023-05-08T12:38:37.957Z,42.12
2023-05-08T12:39:38.057Z,42.12
2023-05-08T12:40:38.098Z,42.12
2023-05-08T12:41:38.161Z,42.02
2023-05-08T12:42:38.195Z,42.05
2023-05-08T12:43:38.294Z,42.06
2023-05-08T12:44:38.414Z,41.99
2023-05-08T12:45:38.362Z,41.99
2023-05-08T12:46:38.452Z,41.91
2023-05-08T12:47:38.702Z,41.91
2023-05-08T12:48:38.585Z,41.91
2023-05-08T12:49:38.580Z,41.85
2023-05-08T12:50:38.613Z,41.90
2023-05-08T12:51:38.683Z,41.87
2023-05-08T12:52:38.747Z,41.84